sensor_id;sensor_type;location;lat;lon;timestamp;temperature;humidity
59556;DHT22;45374;52.746;6.304;2023-03-25T00:00:55;9.80;99.90
59556;DHT22;45374;52.746;6.304;2023-03-25T00:03:34;9.70;99.90
59556;DHT22;45374;52.746;6.304;2023-03-25T00:06:05;9.70;99.90
59556;DHT22;45374;52.746;6.304;2023-03-25T00:08:31;9.60;99.90
59556;DHT22;45374;52.746;6.304;2023-03-25T00:10:58;9.60;99.90
59556;DHT22;45374;52.746;6.304;2023-03-25T00:13:24;9.70;99.90
59556;DHT22;45374;52.746;6.304;2023-03-25T00:15:51;9.70;99.90
59556;DHT22;45374;52.746;6.304;2023-03-25T00:18:26;9.70;99.90
59556;DHT22;45374;52.746;6.304;2023-03-25T00:20:54;9.60;99.90
59556;DHT22;45374;52.746;6.304;2023-03-25T00:23:21;9.60;99.90
59556;DHT22;45374;52.746;6.304;2023-03-25T00:25:48;9.60;99.90
59556;DHT22;45374;52.746;6.304;2023-03-25T00:28:15;9.60;99.90
59556;DHT22;45374;52.746;6.304;2023-03-25T00:30:41;9.60;99.90
59556;DHT22;45374;52.746;6.304;2023-03-25T00:33:08;9.50;99.90
59556;DHT22;45374;52.746;6.304;2023-03-25T00:35:40;9.50;99.90
59556;DHT22;45374;52.746;6.304;2023-03-25T00:38:12;9.40;99.90
59556;DHT22;45374;52.746;6.304;2023-03-25T00:40:39;9.30;99.90
59556;DHT22;45374;52.746;6.304;2023-03-25T00:43:06;9.20;99.90
59556;DHT22;45374;52.746;6.304;2023-03-25T00:45:32;9.20;99.90
59556;DHT22;45374;52.746;6.304;2023-03-25T00:47:58;9.10;99.90
59556;DHT22;45374;52.746;6.304;2023-03-25T00:50:24;9.10;99.90
59556;DHT22;45374;52.746;6.304;2023-03-25T00:52:50;9.10;99.90
59556;DHT22;45374;52.746;6.304;2023-03-25T00:55:18;9.10;99.90
59556;DHT22;45374;52.746;6.304;2023-03-25T00:57:43;9.00;99.90
59556;DHT22;45374;52.746;6.304;2023-03-25T01:00:12;9.00;99.90
59556;DHT22;45374;52.746;6.304;2023-03-25T01:02:38;9.00;99.90
59556;DHT22;45374;52.746;6.304;2023-03-25T01:05:04;9.00;99.90
59556;DHT22;45374;52.746;6.304;2023-03-25T01:07:30;9.00;99.90
59556;DHT22;45374;52.746;6.304;2023-03-25T01:09:57;8.90;99.90
59556;DHT22;45374;52.746;6.304;2023-03-25T01:12:23;8.90;99.90
59556;DHT22;45374;52.746;6.304;2023-03-25T01:14:50;8.90;99.90
59556;DHT22;45374;52.746;6.304;2023-03-25T01:17:15;8.90;99.90
59556;DHT22;45374;52.746;6.304;2023-03-25T01:19:41;8.80;99.90
59556;DHT22;45374;52.746;6.304;2023-03-25T01:22:06;8.90;99.90
59556;DHT22;45374;52.746;6.304;2023-03-25T01:24:32;9.00;99.90
59556;DHT22;45374;52.746;6.304;2023-03-25T01:26:58;9.00;99.90
59556;DHT22;45374;52.746;6.304;2023-03-25T01:29:23;8.90;99.90
59556;DHT22;45374;52.746;6.304;2023-03-25T01:31:49;8.90;99.90
59556;DHT22;45374;52.746;6.304;2023-03-25T01:34:15;8.90;99.90
59556;DHT22;45374;52.746;6.304;2023-03-25T01:36:41;8.90;99.90
59556;DHT22;45374;52.746;6.304;2023-03-25T01:39:12;8.80;99.90
59556;DHT22;45374;52.746;6.304;2023-03-25T01:41:42;8.70;99.90
59556;DHT22;45374;52.746;6.304;2023-03-25T01:45:13;8.70;99.90
59556;DHT22;45374;52.746;6.304;2023-03-25T01:46:57;8.70;99.90
59556;DHT22;45374;52.746;6.304;2023-03-25T01:49:37;8.60;99.90
59556;DHT22;45374;52.746;6.304;2023-03-25T01:52:08;8.60;99.90
59556;DHT22;45374;52.746;6.304;2023-03-25T01:54:35;8.60;99.90
59556;DHT22;45374;52.746;6.304;2023-03-25T01:57:03;8.60;99.90
59556;DHT22;45374;52.746;6.304;2023-03-25T01:59:29;8.50;99.90
59556;DHT22;45374;52.746;6.304;2023-03-25T02:01:57;8.50;99.90
59556;DHT22;45374;52.746;6.304;2023-03-25T02:04:54;8.50;99.90
59556;DHT22;45374;52.746;6.304;2023-03-25T02:07:26;8.40;99.90
59556;DHT22;45374;52.746;6.304;2023-03-25T02:09:58;8.40;99.90
59556;DHT22;45374;52.746;6.304;2023-03-25T02:12:25;8.40;99.90
59556;DHT22;45374;52.746;6.304;2023-03-25T02:14:50;8.40;99.90
59556;DHT22;45374;52.746;6.304;2023-03-25T02:17:42;8.40;99.90
59556;DHT22;45374;52.746;6.304;2023-03-25T02:20:23;8.40;99.90
59556;DHT22;45374;52.746;6.304;2023-03-25T02:23:25;8.30;99.90
59556;DHT22;45374;52.746;6.304;2023-03-25T02:29:02;8.30;99.90
59556;DHT22;45374;52.746;6.304;2023-03-25T02:34:30;8.50;99.90
59556;DHT22;45374;52.746;6.304;2023-03-25T02:37:17;8.50;99.90
59556;DHT22;45374;52.746;6.304;2023-03-25T02:45:04;8.50;99.90
59556;DHT22;45374;52.746;6.304;2023-03-25T02:47:35;8.50;99.90
59556;DHT22;45374;52.746;6.304;2023-03-25T02:50:13;8.50;99.90
59556;DHT22;45374;52.746;6.304;2023-03-25T02:52:43;8.50;99.90
59556;DHT22;45374;52.746;6.304;2023-03-25T02:55:13;8.60;99.90
59556;DHT22;45374;52.746;6.304;2023-03-25T02:57:43;8.50;99.90
59556;DHT22;45374;52.746;6.304;2023-03-25T03:00:12;8.60;99.90
59556;DHT22;45374;52.746;6.304;2023-03-25T03:02:55;8.60;99.90
59556;DHT22;45374;52.746;6.304;2023-03-25T03:05:28;8.60;99.90
59556;DHT22;45374;52.746;6.304;2023-03-25T03:22:37;8.60;99.90
59556;DHT22;45374;52.746;6.304;2023-03-25T03:27:56;8.60;99.90
59556;DHT22;45374;52.746;6.304;2023-03-25T03:30:42;8.60;99.90
59556;DHT22;45374;52.746;6.304;2023-03-25T03:33:20;8.60;99.90
59556;DHT22;45374;52.746;6.304;2023-03-25T03:38:24;8.60;99.90
59556;DHT22;45374;52.746;6.304;2023-03-25T03:40:55;8.60;99.90
59556;DHT22;45374;52.746;6.304;2023-03-25T03:43:34;8.60;99.90
59556;DHT22;45374;52.746;6.304;2023-03-25T03:46:05;8.60;99.90
59556;DHT22;45374;52.746;6.304;2023-03-25T03:48:47;8.50;99.90
59556;DHT22;45374;52.746;6.304;2023-03-25T03:51:21;8.50;99.90
59556;DHT22;45374;52.746;6.304;2023-03-25T03:56:31;8.50;99.90
59556;DHT22;45374;52.746;6.304;2023-03-25T03:59:36;8.50;99.90
59556;DHT22;45374;52.746;6.304;2023-03-25T04:01:58;8.50;99.90
59556;DHT22;45374;52.746;6.304;2023-03-25T04:04:24;8.50;99.90
59556;DHT22;45374;52.746;6.304;2023-03-25T04:06:59;8.50;99.90
59556;DHT22;45374;52.746;6.304;2023-03-25T04:14:49;8.50;99.90
59556;DHT22;45374;52.746;6.304;2023-03-25T04:17:15;8.50;99.90
59556;DHT22;45374;52.746;6.304;2023-03-25T04:19:41;8.50;99.90
59556;DHT22;45374;52.746;6.304;2023-03-25T04:22:16;8.60;99.90
59556;DHT22;45374;52.746;6.304;2023-03-25T04:24:43;8.60;99.90
59556;DHT22;45374;52.746;6.304;2023-03-25T04:27:09;8.60;99.90
59556;DHT22;45374;52.746;6.304;2023-03-25T04:29:38;8.60;99.90
59556;DHT22;45374;52.746;6.304;2023-03-25T04:32:10;8.50;99.90
59556;DHT22;45374;52.746;6.304;2023-03-25T04:34:37;8.50;99.90
59556;DHT22;45374;52.746;6.304;2023-03-25T04:37:03;8.50;99.90
59556;DHT22;45374;52.746;6.304;2023-03-25T04:39:28;8.50;99.90
59556;DHT22;45374;52.746;6.304;2023-03-25T04:41:57;8.40;99.90
59556;DHT22;45374;52.746;6.304;2023-03-25T04:44:26;8.40;99.90
59556;DHT22;45374;52.746;6.304;2023-03-25T04:46:53;8.40;99.90
59556;DHT22;45374;52.746;6.304;2023-03-25T04:49:21;8.40;99.90
59556;DHT22;45374;52.746;6.304;2023-03-25T04:51:52;8.40;99.90
59556;DHT22;45374;52.746;6.304;2023-03-25T04:54:19;8.40;99.90
59556;DHT22;45374;52.746;6.304;2023-03-25T04:56:48;8.40;99.90
59556;DHT22;45374;52.746;6.304;2023-03-25T04:59:16;8.50;99.90
59556;DHT22;45374;52.746;6.304;2023-03-25T05:01:43;8.50;99.90
59556;DHT22;45374;52.746;6.304;2023-03-25T05:04:11;8.50;99.90
59556;DHT22;45374;52.746;6.304;2023-03-25T05:06:43;8.40;99.90
59556;DHT22;45374;52.746;6.304;2023-03-25T05:09:13;8.50;99.90
59556;DHT22;45374;52.746;6.304;2023-03-25T05:11:40;8.40;99.90
59556;DHT22;45374;52.746;6.304;2023-03-25T05:14:08;8.50;99.90
59556;DHT22;45374;52.746;6.304;2023-03-25T05:16:34;8.40;99.90
59556;DHT22;45374;52.746;6.304;2023-03-25T05:19:00;8.40;99.90
59556;DHT22;45374;52.746;6.304;2023-03-25T05:21:29;8.40;99.90
59556;DHT22;45374;52.746;6.304;2023-03-25T05:23:56;8.50;99.90
59556;DHT22;45374;52.746;6.304;2023-03-25T05:26:22;8.50;99.90
59556;DHT22;45374;52.746;6.304;2023-03-25T05:28:48;8.30;99.90
59556;DHT22;45374;52.746;6.304;2023-03-25T05:31:16;8.20;99.90
59556;DHT22;45374;52.746;6.304;2023-03-25T05:33:42;8.30;99.90
59556;DHT22;45374;52.746;6.304;2023-03-25T05:36:09;8.30;99.90
59556;DHT22;45374;52.746;6.304;2023-03-25T05:38:36;8.20;99.90
59556;DHT22;45374;52.746;6.304;2023-03-25T05:41:02;8.30;99.90
59556;DHT22;45374;52.746;6.304;2023-03-25T05:43:28;8.20;99.90
59556;DHT22;45374;52.746;6.304;2023-03-25T05:46:00;8.30;99.90
59556;DHT22;45374;52.746;6.304;2023-03-25T05:48:25;8.30;99.90
59556;DHT22;45374;52.746;6.304;2023-03-25T05:50:51;8.30;99.90
59556;DHT22;45374;52.746;6.304;2023-03-25T05:53:20;8.30;99.90
59556;DHT22;45374;52.746;6.304;2023-03-25T05:55:47;8.20;99.90
59556;DHT22;45374;52.746;6.304;2023-03-25T05:58:15;8.30;99.90
59556;DHT22;45374;52.746;6.304;2023-03-25T06:00:41;8.30;99.90
59556;DHT22;45374;52.746;6.304;2023-03-25T06:03:07;8.30;99.90
59556;DHT22;45374;52.746;6.304;2023-03-25T06:05:33;8.20;99.90
59556;DHT22;45374;52.746;6.304;2023-03-25T06:07:59;8.20;99.90
59556;DHT22;45374;52.746;6.304;2023-03-25T06:10:26;8.30;99.90
59556;DHT22;45374;52.746;6.304;2023-03-25T06:12:52;8.30;99.90
59556;DHT22;45374;52.746;6.304;2023-03-25T06:15:19;8.30;99.90
59556;DHT22;45374;52.746;6.304;2023-03-25T06:17:57;8.30;99.90
59556;DHT22;45374;52.746;6.304;2023-03-25T06:20:26;8.40;99.90
59556;DHT22;45374;52.746;6.304;2023-03-25T06:22:51;8.40;99.90
59556;DHT22;45374;52.746;6.304;2023-03-25T06:25:18;8.30;99.90
59556;DHT22;45374;52.746;6.304;2023-03-25T06:27:46;8.40;99.90
59556;DHT22;45374;52.746;6.304;2023-03-25T06:30:18;8.40;99.90
59556;DHT22;45374;52.746;6.304;2023-03-25T06:32:44;8.40;99.90
59556;DHT22;45374;52.746;6.304;2023-03-25T06:35:15;8.40;99.90
59556;DHT22;45374;52.746;6.304;2023-03-25T06:37:47;8.40;99.90
59556;DHT22;45374;52.746;6.304;2023-03-25T06:40:13;8.40;99.90
59556;DHT22;45374;52.746;6.304;2023-03-25T06:42:39;8.50;99.90
59556;DHT22;45374;52.746;6.304;2023-03-25T06:45:06;8.60;99.90
59556;DHT22;45374;52.746;6.304;2023-03-25T06:47:32;8.80;99.90
59556;DHT22;45374;52.746;6.304;2023-03-25T06:49:58;8.90;99.90
59556;DHT22;45374;52.746;6.304;2023-03-25T06:52:24;8.80;99.90
59556;DHT22;45374;52.746;6.304;2023-03-25T06:54:49;8.90;99.90
59556;DHT22;45374;52.746;6.304;2023-03-25T06:57:15;9.00;99.90
59556;DHT22;45374;52.746;6.304;2023-03-25T06:59:42;9.10;99.90
59556;DHT22;45374;52.746;6.304;2023-03-25T07:02:13;9.10;99.90
59556;DHT22;45374;52.746;6.304;2023-03-25T07:04:39;9.20;99.90
59556;DHT22;45374;52.746;6.304;2023-03-25T07:07:05;9.20;99.90
59556;DHT22;45374;52.746;6.304;2023-03-25T07:09:30;9.20;99.90
59556;DHT22;45374;52.746;6.304;2023-03-25T07:11:56;9.10;99.90
59556;DHT22;45374;52.746;6.304;2023-03-25T07:14:22;9.10;99.90
59556;DHT22;45374;52.746;6.304;2023-03-25T07:16:48;9.10;99.90
59556;DHT22;45374;52.746;6.304;2023-03-25T07:19:13;9.00;99.90
59556;DHT22;45374;52.746;6.304;2023-03-25T07:21:39;8.90;99.90
59556;DHT22;45374;52.746;6.304;2023-03-25T07:24:05;8.80;99.90
59556;DHT22;45374;52.746;6.304;2023-03-25T07:26:31;8.50;99.90
59556;DHT22;45374;52.746;6.304;2023-03-25T07:28:56;8.40;99.90
59556;DHT22;45374;52.746;6.304;2023-03-25T07:31:22;8.40;99.90
59556;DHT22;45374;52.746;6.304;2023-03-25T07:33:47;8.30;99.90
59556;DHT22;45374;52.746;6.304;2023-03-25T07:36:13;8.30;99.90
59556;DHT22;45374;52.746;6.304;2023-03-25T07:38:39;8.40;99.90
59556;DHT22;45374;52.746;6.304;2023-03-25T07:41:11;8.40;99.90
59556;DHT22;45374;52.746;6.304;2023-03-25T07:43:38;8.50;99.90
59556;DHT22;45374;52.746;6.304;2023-03-25T07:46:04;8.60;99.90
59556;DHT22;45374;52.746;6.304;2023-03-25T07:48:30;8.70;99.90
59556;DHT22;45374;52.746;6.304;2023-03-25T07:50:55;8.80;99.90
59556;DHT22;45374;52.746;6.304;2023-03-25T07:53:21;8.70;99.90
59556;DHT22;45374;52.746;6.304;2023-03-25T07:55:47;8.70;99.90
59556;DHT22;45374;52.746;6.304;2023-03-25T07:58:16;8.60;99.90
59556;DHT22;45374;52.746;6.304;2023-03-25T08:00:42;8.70;99.90
59556;DHT22;45374;52.746;6.304;2023-03-25T08:03:10;8.60;99.90
59556;DHT22;45374;52.746;6.304;2023-03-25T08:05:35;8.60;99.90
59556;DHT22;45374;52.746;6.304;2023-03-25T08:08:04;8.70;99.90
59556;DHT22;45374;52.746;6.304;2023-03-25T08:10:30;8.70;99.90
59556;DHT22;45374;52.746;6.304;2023-03-25T08:12:56;8.80;99.90
59556;DHT22;45374;52.746;6.304;2023-03-25T08:15:22;8.70;99.90
59556;DHT22;45374;52.746;6.304;2023-03-25T08:17:52;8.80;99.90
59556;DHT22;45374;52.746;6.304;2023-03-25T08:20:18;8.80;99.90
59556;DHT22;45374;52.746;6.304;2023-03-25T08:22:44;8.80;99.90
59556;DHT22;45374;52.746;6.304;2023-03-25T08:25:10;8.80;99.90
59556;DHT22;45374;52.746;6.304;2023-03-25T08:27:37;9.00;99.90
59556;DHT22;45374;52.746;6.304;2023-03-25T08:30:02;9.00;99.90
59556;DHT22;45374;52.746;6.304;2023-03-25T08:32:29;9.00;99.90
59556;DHT22;45374;52.746;6.304;2023-03-25T08:34:56;9.10;99.90
59556;DHT22;45374;52.746;6.304;2023-03-25T08:37:22;9.30;99.90
59556;DHT22;45374;52.746;6.304;2023-03-25T08:39:51;9.40;99.90
59556;DHT22;45374;52.746;6.304;2023-03-25T08:42:19;9.30;99.90
59556;DHT22;45374;52.746;6.304;2023-03-25T08:44:45;9.30;99.90
59556;DHT22;45374;52.746;6.304;2023-03-25T08:47:11;9.20;99.90
59556;DHT22;45374;52.746;6.304;2023-03-25T08:49:37;9.20;99.90
59556;DHT22;45374;52.746;6.304;2023-03-25T08:52:02;9.20;99.90
59556;DHT22;45374;52.746;6.304;2023-03-25T08:54:32;9.30;99.90
59556;DHT22;45374;52.746;6.304;2023-03-25T08:56:57;9.30;99.90
59556;DHT22;45374;52.746;6.304;2023-03-25T08:59:23;9.30;99.90
59556;DHT22;45374;52.746;6.304;2023-03-25T09:01:48;9.20;99.90
59556;DHT22;45374;52.746;6.304;2023-03-25T09:04:15;9.20;99.90
59556;DHT22;45374;52.746;6.304;2023-03-25T09:06:40;9.30;99.90
59556;DHT22;45374;52.746;6.304;2023-03-25T09:09:07;9.40;99.90
59556;DHT22;45374;52.746;6.304;2023-03-25T09:11:35;9.40;99.90
59556;DHT22;45374;52.746;6.304;2023-03-25T09:14:01;9.50;99.90
59556;DHT22;45374;52.746;6.304;2023-03-25T09:16:33;9.50;99.90
59556;DHT22;45374;52.746;6.304;2023-03-25T09:18:59;9.70;99.90
59556;DHT22;45374;52.746;6.304;2023-03-25T09:21:25;9.90;99.90
59556;DHT22;45374;52.746;6.304;2023-03-25T09:23:51;10.00;99.90
59556;DHT22;45374;52.746;6.304;2023-03-25T09:26:17;9.80;99.90
59556;DHT22;45374;52.746;6.304;2023-03-25T09:28:42;9.70;99.90
59556;DHT22;45374;52.746;6.304;2023-03-25T09:31:08;9.70;99.90
59556;DHT22;45374;52.746;6.304;2023-03-25T09:33:34;9.70;99.90
59556;DHT22;45374;52.746;6.304;2023-03-25T09:36:00;9.60;99.90
59556;DHT22;45374;52.746;6.304;2023-03-25T09:38:26;9.50;99.90
59556;DHT22;45374;52.746;6.304;2023-03-25T09:40:52;9.50;99.90
59556;DHT22;45374;52.746;6.304;2023-03-25T09:43:54;9.40;99.90
59556;DHT22;45374;52.746;6.304;2023-03-25T09:46:24;9.60;99.90
59556;DHT22;45374;52.746;6.304;2023-03-25T09:48:50;9.70;99.90
59556;DHT22;45374;52.746;6.304;2023-03-25T09:51:31;9.90;99.90
59556;DHT22;45374;52.746;6.304;2023-03-25T09:56:32;10.00;99.90
59556;DHT22;45374;52.746;6.304;2023-03-25T09:59:20;10.20;99.90
59556;DHT22;45374;52.746;6.304;2023-03-25T10:02:06;10.30;99.90
59556;DHT22;45374;52.746;6.304;2023-03-25T10:04:51;10.30;99.90
59556;DHT22;45374;52.746;6.304;2023-03-25T10:10:28;10.20;99.90
59556;DHT22;45374;52.746;6.304;2023-03-25T10:15:49;10.20;99.90
59556;DHT22;45374;52.746;6.304;2023-03-25T10:21:31;10.10;99.90
59556;DHT22;45374;52.746;6.304;2023-03-25T10:27:26;10.30;99.90
59556;DHT22;45374;52.746;6.304;2023-03-25T10:30:22;10.30;99.90
59556;DHT22;45374;52.746;6.304;2023-03-25T10:32:55;10.30;99.90
59556;DHT22;45374;52.746;6.304;2023-03-25T10:35:24;10.40;99.90
59556;DHT22;45374;52.746;6.304;2023-03-25T10:37:58;10.30;99.90
59556;DHT22;45374;52.746;6.304;2023-03-25T10:40:32;10.30;99.90
59556;DHT22;45374;52.746;6.304;2023-03-25T10:45:48;10.40;99.90
59556;DHT22;45374;52.746;6.304;2023-03-25T10:48:28;10.40;99.90
59556;DHT22;45374;52.746;6.304;2023-03-25T10:51:09;10.60;99.90
59556;DHT22;45374;52.746;6.304;2023-03-25T10:53:35;10.60;99.90
59556;DHT22;45374;52.746;6.304;2023-03-25T10:56:14;10.60;99.90
59556;DHT22;45374;52.746;6.304;2023-03-25T10:58:44;10.60;99.90
59556;DHT22;45374;52.746;6.304;2023-03-25T11:01:15;10.60;99.90
59556;DHT22;45374;52.746;6.304;2023-03-25T11:03:43;10.60;99.90
59556;DHT22;45374;52.746;6.304;2023-03-25T11:06:21;10.70;99.90
59556;DHT22;45374;52.746;6.304;2023-03-25T11:11:33;10.70;99.90
59556;DHT22;45374;52.746;6.304;2023-03-25T11:14:00;10.80;99.90
59556;DHT22;45374;52.746;6.304;2023-03-25T11:16:34;10.90;99.90
59556;DHT22;45374;52.746;6.304;2023-03-25T11:19:02;11.00;99.90
59556;DHT22;45374;52.746;6.304;2023-03-25T11:21:32;11.20;99.90
59556;DHT22;45374;52.746;6.304;2023-03-25T11:24:00;11.20;99.90
59556;DHT22;45374;52.746;6.304;2023-03-25T11:26:28;11.30;99.90
59556;DHT22;45374;52.746;6.304;2023-03-25T11:29:11;11.40;99.90
59556;DHT22;45374;52.746;6.304;2023-03-25T11:31:37;11.40;99.90
59556;DHT22;45374;52.746;6.304;2023-03-25T11:36:36;11.20;99.90
59556;DHT22;45374;52.746;6.304;2023-03-25T11:41:50;11.30;99.90
59556;DHT22;45374;52.746;6.304;2023-03-25T11:44:26;11.20;99.90
59556;DHT22;45374;52.746;6.304;2023-03-25T11:46:56;11.40;99.90
59556;DHT22;45374;52.746;6.304;2023-03-25T11:49:24;11.30;99.90
59556;DHT22;45374;52.746;6.304;2023-03-25T11:52:19;11.40;99.90
59556;DHT22;45374;52.746;6.304;2023-03-25T11:54:45;11.80;99.90
59556;DHT22;45374;52.746;6.304;2023-03-25T11:57:15;12.10;99.90
59556;DHT22;45374;52.746;6.304;2023-03-25T11:59:46;12.00;99.90
59556;DHT22;45374;52.746;6.304;2023-03-25T12:02:22;11.70;99.90
59556;DHT22;45374;52.746;6.304;2023-03-25T12:05:12;11.50;99.90
59556;DHT22;45374;52.746;6.304;2023-03-25T12:07:48;11.50;99.90
59556;DHT22;45374;52.746;6.304;2023-03-25T12:10:17;11.50;99.90
59556;DHT22;45374;52.746;6.304;2023-03-25T12:13:23;11.40;99.90
59556;DHT22;45374;52.746;6.304;2023-03-25T12:16:03;11.40;99.90
59556;DHT22;45374;52.746;6.304;2023-03-25T12:18:51;11.20;99.90
59556;DHT22;45374;52.746;6.304;2023-03-25T12:21:25;11.10;99.90
59556;DHT22;45374;52.746;6.304;2023-03-25T12:24:17;11.10;99.90
59556;DHT22;45374;52.746;6.304;2023-03-25T12:29:46;11.30;99.90
59556;DHT22;45374;52.746;6.304;2023-03-25T12:32:42;11.50;99.90
59556;DHT22;45374;52.746;6.304;2023-03-25T12:44:05;11.60;99.90
59556;DHT22;45374;52.746;6.304;2023-03-25T12:49:02;11.50;99.90
59556;DHT22;45374;52.746;6.304;2023-03-25T12:51:48;11.50;99.90
59556;DHT22;45374;52.746;6.304;2023-03-25T12:59:58;11.50;99.90
59556;DHT22;45374;52.746;6.304;2023-03-25T13:05:20;11.60;99.90
59556;DHT22;45374;52.746;6.304;2023-03-25T13:08:00;11.70;99.90
59556;DHT22;45374;52.746;6.304;2023-03-25T13:10:38;11.60;99.90
59556;DHT22;45374;52.746;6.304;2023-03-25T13:13:13;11.60;99.90
59556;DHT22;45374;52.746;6.304;2023-03-25T13:15:47;11.70;99.90
59556;DHT22;45374;52.746;6.304;2023-03-25T13:18:24;11.90;99.90
59556;DHT22;45374;52.746;6.304;2023-03-25T13:23:26;12.10;99.90
59556;DHT22;45374;52.746;6.304;2023-03-25T13:26:01;12.00;99.90
59556;DHT22;45374;52.746;6.304;2023-03-25T13:29:01;11.90;99.90
59556;DHT22;45374;52.746;6.304;2023-03-25T13:31:28;11.80;99.90
59556;DHT22;45374;52.746;6.304;2023-03-25T13:36:42;11.70;99.90
59556;DHT22;45374;52.746;6.304;2023-03-25T13:39:20;11.60;99.90
59556;DHT22;45374;52.746;6.304;2023-03-25T13:41:52;11.90;99.90
59556;DHT22;45374;52.746;6.304;2023-03-25T13:44:28;11.90;99.90
59556;DHT22;45374;52.746;6.304;2023-03-25T13:52:01;11.80;99.90
59556;DHT22;45374;52.746;6.304;2023-03-25T14:05:29;11.40;99.90
59556;DHT22;45374;52.746;6.304;2023-03-25T14:11:23;11.20;99.90
59556;DHT22;45374;52.746;6.304;2023-03-25T14:13:53;11.30;99.90
59556;DHT22;45374;52.746;6.304;2023-03-25T14:16:33;11.40;99.90
59556;DHT22;45374;52.746;6.304;2023-03-25T14:19:02;11.30;99.90
59556;DHT22;45374;52.746;6.304;2023-03-25T14:24:15;11.00;99.90
59556;DHT22;45374;52.746;6.304;2023-03-25T14:29:40;10.40;99.90
59556;DHT22;45374;52.746;6.304;2023-03-25T14:45:53;8.60;99.90
59556;DHT22;45374;52.746;6.304;2023-03-25T14:48:29;8.60;99.90
59556;DHT22;45374;52.746;6.304;2023-03-25T14:51:42;8.60;99.90
59556;DHT22;45374;52.746;6.304;2023-03-25T14:57:15;8.50;99.90
59556;DHT22;45374;52.746;6.304;2023-03-25T14:59:52;8.50;99.90
59556;DHT22;45374;52.746;6.304;2023-03-25T15:02:26;8.50;99.90
59556;DHT22;45374;52.746;6.304;2023-03-25T15:05:23;8.50;99.90
59556;DHT22;45374;52.746;6.304;2023-03-25T15:07:54;8.70;99.90
59556;DHT22;45374;52.746;6.304;2023-03-25T15:10:32;8.60;99.90
59556;DHT22;45374;52.746;6.304;2023-03-25T15:13:08;8.50;99.90
59556;DHT22;45374;52.746;6.304;2023-03-25T15:18:10;8.60;99.90
59556;DHT22;45374;52.746;6.304;2023-03-25T15:20:36;8.70;99.90
59556;DHT22;45374;52.746;6.304;2023-03-25T15:25:45;9.30;99.90
59556;DHT22;45374;52.746;6.304;2023-03-25T15:30:53;9.70;99.90
59556;DHT22;45374;52.746;6.304;2023-03-25T15:33:44;9.70;99.90
59556;DHT22;45374;52.746;6.304;2023-03-25T15:36:35;9.60;99.90
59556;DHT22;45374;52.746;6.304;2023-03-25T15:39:26;9.60;99.90
59556;DHT22;45374;52.746;6.304;2023-03-25T15:45:13;9.20;99.90
59556;DHT22;45374;52.746;6.304;2023-03-25T15:48:09;9.00;99.90
59556;DHT22;45374;52.746;6.304;2023-03-25T15:51:02;8.30;99.90
59556;DHT22;45374;52.746;6.304;2023-03-25T15:56:08;8.00;99.90
59556;DHT22;45374;52.746;6.304;2023-03-25T16:01:32;7.60;99.90
59556;DHT22;45374;52.746;6.304;2023-03-25T16:04:08;7.40;99.90
59556;DHT22;45374;52.746;6.304;2023-03-25T16:06:40;7.30;99.90
59556;DHT22;45374;52.746;6.304;2023-03-25T16:09:18;7.50;99.90
59556;DHT22;45374;52.746;6.304;2023-03-25T16:11:45;7.50;99.90
59556;DHT22;45374;52.746;6.304;2023-03-25T16:14:16;7.70;99.90
59556;DHT22;45374;52.746;6.304;2023-03-25T16:16:55;7.80;99.90
59556;DHT22;45374;52.746;6.304;2023-03-25T16:19:27;8.00;99.90
59556;DHT22;45374;52.746;6.304;2023-03-25T16:22:01;8.10;99.90
59556;DHT22;45374;52.746;6.304;2023-03-25T16:24:29;8.20;99.90
59556;DHT22;45374;52.746;6.304;2023-03-25T16:27:11;8.30;99.90
59556;DHT22;45374;52.746;6.304;2023-03-25T16:29:47;8.50;99.90
59556;DHT22;45374;52.746;6.304;2023-03-25T16:32:17;8.50;99.90
59556;DHT22;45374;52.746;6.304;2023-03-25T16:34:45;8.40;99.90
59556;DHT22;45374;52.746;6.304;2023-03-25T16:37:10;8.50;99.90
59556;DHT22;45374;52.746;6.304;2023-03-25T16:39:36;8.50;99.90
59556;DHT22;45374;52.746;6.304;2023-03-25T16:42:19;8.50;99.90
59556;DHT22;45374;52.746;6.304;2023-03-25T16:44:46;8.60;99.90
59556;DHT22;45374;52.746;6.304;2023-03-25T16:47:13;8.60;99.90
59556;DHT22;45374;52.746;6.304;2023-03-25T16:49:41;8.70;99.90
59556;DHT22;45374;52.746;6.304;2023-03-25T16:52:13;8.60;99.90
59556;DHT22;45374;52.746;6.304;2023-03-25T16:57:28;8.70;99.90
59556;DHT22;45374;52.746;6.304;2023-03-25T16:59:54;8.60;99.90
59556;DHT22;45374;52.746;6.304;2023-03-25T17:02:28;8.60;99.90
59556;DHT22;45374;52.746;6.304;2023-03-25T17:04:56;8.60;99.90
59556;DHT22;45374;52.746;6.304;2023-03-25T17:07:39;8.60;99.90
59556;DHT22;45374;52.746;6.304;2023-03-25T17:10:17;8.70;99.90
59556;DHT22;45374;52.746;6.304;2023-03-25T17:12:43;8.70;99.90
59556;DHT22;45374;52.746;6.304;2023-03-25T17:15:15;8.60;99.90
59556;DHT22;45374;52.746;6.304;2023-03-25T17:17:49;8.70;99.90
59556;DHT22;45374;52.746;6.304;2023-03-25T17:20:29;8.70;99.90
59556;DHT22;45374;52.746;6.304;2023-03-25T17:23:07;8.70;99.90
59556;DHT22;45374;52.746;6.304;2023-03-25T17:25:55;8.70;99.90
59556;DHT22;45374;52.746;6.304;2023-03-25T17:28:31;8.60;99.90
59556;DHT22;45374;52.746;6.304;2023-03-25T17:30:58;8.70;99.90
59556;DHT22;45374;52.746;6.304;2023-03-25T17:33:34;8.70;99.90
59556;DHT22;45374;52.746;6.304;2023-03-25T17:36:09;8.70;99.90
59556;DHT22;45374;52.746;6.304;2023-03-25T17:38:43;8.70;99.90
59556;DHT22;45374;52.746;6.304;2023-03-25T17:41:10;8.70;99.90
59556;DHT22;45374;52.746;6.304;2023-03-25T17:43:48;8.80;99.90
59556;DHT22;45374;52.746;6.304;2023-03-25T17:46:22;8.80;99.90
59556;DHT22;45374;52.746;6.304;2023-03-25T17:48:49;8.90;99.90
59556;DHT22;45374;52.746;6.304;2023-03-25T17:51:15;8.90;99.90
59556;DHT22;45374;52.746;6.304;2023-03-25T17:53:41;8.90;99.90
59556;DHT22;45374;52.746;6.304;2023-03-25T17:56:10;8.90;99.90
59556;DHT22;45374;52.746;6.304;2023-03-25T17:58:36;8.90;99.90
59556;DHT22;45374;52.746;6.304;2023-03-25T18:01:02;9.00;99.90
59556;DHT22;45374;52.746;6.304;2023-03-25T18:03:30;9.00;99.90
59556;DHT22;45374;52.746;6.304;2023-03-25T18:05:56;9.00;99.90
59556;DHT22;45374;52.746;6.304;2023-03-25T18:08:26;9.00;99.90
59556;DHT22;45374;52.746;6.304;2023-03-25T18:10:52;9.00;99.90
59556;DHT22;45374;52.746;6.304;2023-03-25T18:13:19;9.00;99.90
59556;DHT22;45374;52.746;6.304;2023-03-25T18:15:47;9.00;99.90
59556;DHT22;45374;52.746;6.304;2023-03-25T18:18:17;9.00;99.90
59556;DHT22;45374;52.746;6.304;2023-03-25T18:20:44;9.00;99.90
59556;DHT22;45374;52.746;6.304;2023-03-25T18:23:11;9.00;99.90
59556;DHT22;45374;52.746;6.304;2023-03-25T18:25:38;8.90;99.90
59556;DHT22;45374;52.746;6.304;2023-03-25T18:28:03;9.00;99.90
59556;DHT22;45374;52.746;6.304;2023-03-25T18:30:37;9.00;99.90
59556;DHT22;45374;52.746;6.304;2023-03-25T18:33:07;8.90;99.90
59556;DHT22;45374;52.746;6.304;2023-03-25T18:35:32;8.90;99.90
59556;DHT22;45374;52.746;6.304;2023-03-25T18:37:58;8.90;99.90
59556;DHT22;45374;52.746;6.304;2023-03-25T18:40:26;8.90;99.90